Time,TemperatureF,DewpointF,PressureIn,WindDirection,WindDirectionDegrees,WindSpeedMPH,WindSpeedGustMPH,Humidity,HourlyPrecipIn,Conditions,Clouds,dailyrainin,SolarRadiationWatts/m^2,SoftwareType,DateUTC
2013-08-10 00:22:00,45.0,45.0,-100.00,NNE,16,0.0,0.0,100,0.00,,,0.00,0.000000,,2013-08-10 04:22:00,
2013-08-10 00:32:00,45.0,45.0,-100.00,NNE,16,0.0,0.0,100,0.00,,,0.00,0.000000,,2013-08-10 04:32:00,
2013-08-10 00:43:00,45.0,45.0,-100.00,NNE,16,0.0,0.0,100,0.00,,,0.00,0.000000,,2013-08-10 04:43:00,
2013-08-10 00:53:00,45.0,45.0,-100.00,NNE,16,0.0,0.0,100,0.00,,,0.00,0.000000,,2013-08-10 04:53:00,
2013-08-10 01:22:00,45.0,45.0,-100.00,NNE,13,0.0,0.0,100,0.00,,,0.00,0.000000,,2013-08-10 05:22:00,
2013-08-10 01:32:00,45.0,45.0,-100.00,NNE,13,0.0,0.0,100,0.00,,,0.00,0.000000,,2013-08-10 05:32:00,
2013-08-10 01:43:00,45.0,45.0,-100.00,NNE,13,0.0,0.0,100,0.00,,,0.00,0.000000,,2013-08-10 05:43:00,
2013-08-10 01:52:00,45.0,45.0,-100.00,NNE,13,0.0,0.0,100,0.00,,,0.00,0.000000,,2013-08-10 05:52:00,
2013-08-10 02:22:00,44.0,44.0,-100.00,NNE,32,0.0,0.0,100,0.00,,,0.00,0.000000,,2013-08-10 06:22:00,
2013-08-10 02:32:00,44.0,44.0,-100.00,NNE,32,0.0,0.0,100,0.00,,,0.00,0.000000,,2013-08-10 06:32:00,
2013-08-10 02:44:00,44.0,44.0,-100.00,NNE,32,0.0,0.0,100,0.00,,,0.00,0.000000,,2013-08-10 06:44:00,
2013-08-10 02:53:00,44.0,44.0,-100.00,NNE,32,0.0,0.0,100,0.00,,,0.00,0.000000,,2013-08-10 06:53:00,
2013-08-10 03:22:00,43.0,43.0,-100.00,NNE,14,0.0,0.0,100,0.00,,,0.00,0.000000,,2013-08-10 07:22:00,
2013-08-10 03:33:00,43.0,43.0,-100.00,NNE,14,0.0,0.0,100,0.00,,,0.00,0.000000,,2013-08-10 07:33:00,
2013-08-10 03:43:00,43.0,43.0,-100.00,NNE,14,0.0,0.0,100,0.00,,,0.00,0.000000,,2013-08-10 07:43:00,
2013-08-10 03:52:00,43.0,43.0,-100.00,NNE,14,0.0,0.0,100,0.00,,,0.00,0.000000,,2013-08-10 07:52:00,
2013-08-10 04:22:00,42.0,42.0,-100.00,NE,44,0.0,0.0,100,0.00,,,0.00,0.000000,,2013-08-10 08:22:00,
2013-08-10 04:32:00,42.0,42.0,-100.00,NE,44,0.0,0.0,100,0.00,,,0.00,0.000000,,2013-08-10 08:32:00,
2013-08-10 04:43:00,42.0,42.0,-100.00,NE,44,0.0,0.0,100,0.00,,,0.00,0.000000,,2013-08-10 08:43:00,
2013-08-10 04:53:00,42.0,42.0,-100.00,NE,44,0.0,0.0,100,0.00,,,0.00,0.000000,,2013-08-10 08:53:00,
2013-08-10 05:22:00,41.0,41.0,-100.00,NE,35,0.0,0.0,100,0.00,,,0.00,0.000000,,2013-08-10 09:22:00,
2013-08-10 05:32:00,41.0,41.0,-100.00,NE,35,0.0,0.0,100,0.00,,,0.00,0.000000,,2013-08-10 09:32:00,
2013-08-10 05:43:00,41.0,41.0,-100.00,NE,35,0.0,0.0,100,0.00,,,0.00,0.000000,,2013-08-10 09:43:00,
2013-08-10 05:52:00,41.0,41.0,-100.00,NE,35,0.0,0.0,100,0.00,,,0.00,0.000000,,2013-08-10 09:52:00,
2013-08-10 06:22:00,40.0,40.0,-100.00,North,354,0.0,0.0,100,0.00,,,0.00,0.000000,,2013-08-10 10:22:00,
2013-08-10 06:33:00,40.0,40.0,-100.00,North,354,0.0,0.0,100,0.00,,,0.00,0.000000,,2013-08-10 10:33:00,
2013-08-10 06:44:00,40.0,40.0,-100.00,North,354,0.0,0.0,100,0.00,,,0.00,0.000000,,2013-08-10 10:44:00,
2013-08-10 06:52:00,40.0,40.0,-100.00,North,354,0.0,0.0,100,0.00,,,0.00,0.000000,,2013-08-10 10:52:00,
2013-08-10 10:22:00,62.0,58.0,-100.00,NW,322,4.0,9.0,88,-99.99,,,0.00,441.000000,,2013-08-10 14:22:00,
2013-08-10 10:33:00,62.0,58.0,-100.00,NW,322,4.0,9.0,88,-99.99,,,0.00,441.000000,,2013-08-10 14:33:00,
2013-08-10 10:43:00,62.0,58.0,-100.00,NW,322,4.0,9.0,88,-99.99,,,0.00,441.000000,,2013-08-10 14:43:00,
2013-08-10 10:53:00,62.0,58.0,-100.00,NW,322,4.0,9.0,88,-99.99,,,0.00,441.000000,,2013-08-10 14:53:00,
2013-08-10 11:22:00,66.0,55.0,-100.00,West,272,3.0,7.0,67,0.00,,,0.00,635.000000,,2013-08-10 15:22:00,
2013-08-10 11:34:00,66.0,55.0,-100.00,West,272,3.0,7.0,67,0.00,,,0.00,635.000000,,2013-08-10 15:34:00,
2013-08-10 11:43:00,66.0,55.0,-100.00,West,272,3.0,7.0,67,0.00,,,0.00,635.000000,,2013-08-10 15:43:00,
2013-08-10 11:52:00,66.0,55.0,-100.00,West,272,3.0,7.0,67,0.00,,,0.00,635.000000,,2013-08-10 15:52:00,
2013-08-10 12:22:00,69.0,54.0,-100.00,NW,308,5.0,10.0,59,0.00,,,0.00,818.000000,,2013-08-10 16:22:00,
2013-08-10 12:32:00,69.0,54.0,-100.00,NW,308,5.0,10.0,59,0.00,,,0.00,818.000000,,2013-08-10 16:32:00,
2013-08-10 12:43:00,69.0,54.0,-100.00,NW,308,5.0,10.0,59,0.00,,,0.00,818.000000,,2013-08-10 16:43:00,
2013-08-10 12:53:00,69.0,54.0,-100.00,NW,308,5.0,10.0,59,0.00,,,0.00,818.000000,,2013-08-10 16:53:00,
2013-08-10 13:22:00,70.0,53.0,-100.00,NW,306,4.0,9.0,55,0.00,,,0.00,889.000000,,2013-08-10 17:22:00,
2013-08-10 13:33:00,70.0,53.0,-100.00,NW,306,4.0,9.0,55,0.00,,,0.00,889.000000,,2013-08-10 17:33:00,
2013-08-10 13:43:00,70.0,53.0,-100.00,NW,306,4.0,9.0,55,0.00,,,0.00,889.000000,,2013-08-10 17:43:00,
2013-08-10 13:52:00,70.0,53.0,-100.00,NW,306,4.0,9.0,55,0.00,,,0.00,889.000000,,2013-08-10 17:52:00,
2013-08-10 14:23:00,71.0,55.0,-100.00,NW,305,5.0,11.0,58,0.00,,,-99.99,829.000000,,2013-08-10 18:23:00,
2013-08-10 14:32:00,71.0,55.0,-100.00,NW,305,5.0,11.0,58,0.00,,,-99.99,829.000000,,2013-08-10 18:32:00,
2013-08-10 14:44:00,71.0,55.0,-100.00,NW,305,5.0,11.0,58,0.00,,,-99.99,829.000000,,2013-08-10 18:44:00,
2013-08-10 14:52:00,71.0,55.0,-100.00,NW,305,5.0,11.0,58,0.00,,,-99.99,829.000000,,2013-08-10 18:52:00,
2013-08-10 15:22:00,73.0,54.0,-100.00,NW,311,4.0,11.0,51,0.00,,,0.00,826.000000,,2013-08-10 19:22:00,
2013-08-10 15:33:00,73.0,54.0,-100.00,NW,311,4.0,11.0,51,0.00,,,0.00,826.000000,,2013-08-10 19:33:00,
2013-08-10 15:44:00,73.0,54.0,-100.00,NW,311,4.0,11.0,51,0.00,,,0.00,826.000000,,2013-08-10 19:44:00,
2013-08-10 15:53:00,73.0,54.0,-100.00,NW,311,4.0,11.0,51,0.00,,,0.00,826.000000,,2013-08-10 19:53:00,
2013-08-10 16:22:00,72.0,51.0,-100.00,NW,326,4.0,10.0,47,0.00,,,0.00,896.000000,,2013-08-10 20:22:00,
2013-08-10 16:33:00,72.0,51.0,-100.00,NW,326,4.0,10.0,47,0.00,,,0.00,896.000000,,2013-08-10 20:33:00,
2013-08-10 16:43:00,72.0,51.0,-100.00,NW,326,4.0,10.0,47,0.00,,,0.00,896.000000,,2013-08-10 20:43:00,
2013-08-10 16:53:00,72.0,51.0,-100.00,NW,326,4.0,10.0,47,0.00,,,0.00,896.000000,,2013-08-10 20:53:00,
2013-08-10 17:22:00,72.0,50.0,-100.00,WNW,301,5.0,12.0,46,0.00,,,0.00,811.000000,,2013-08-10 21:22:00,
2013-08-10 17:32:00,72.0,50.0,-100.00,WNW,301,5.0,12.0,46,0.00,,,0.00,811.000000,,2013-08-10 21:32:00,
2013-08-10 17:42:00,72.0,50.0,-100.00,WNW,301,5.0,12.0,46,0.00,,,0.00,811.000000,,2013-08-10 21:42:00,
2013-08-10 17:52:00,72.0,50.0,-100.00,WNW,301,5.0,12.0,46,0.00,,,0.00,811.000000,,2013-08-10 21:52:00,
2013-08-10 18:21:00,73.0,53.0,-100.00,NNW,333,4.0,10.0,49,0.00,,,0.00,674.000000,,2013-08-10 22:21:00,
2013-08-10 18:32:00,73.0,53.0,-100.00,NNW,333,4.0,10.0,49,0.00,,,0.00,674.000000,,2013-08-10 22:32:00,
2013-08-10 18:43:00,73.0,53.0,-100.00,NNW,333,4.0,10.0,49,0.00,,,0.00,674.000000,,2013-08-10 22:43:00,
2013-08-10 18:52:00,73.0,53.0,-100.00,NNW,333,4.0,10.0,49,0.00,,,0.00,674.000000,,2013-08-10 22:52:00,
2013-08-10 19:22:00,72.0,53.0,-100.00,WNW,293,3.0,10.0,52,0.00,,,0.00,510.000000,,2013-08-10 23:22:00,
2013-08-10 19:32:00,72.0,53.0,-100.00,WNW,293,3.0,10.0,52,0.00,,,0.00,510.000000,,2013-08-10 23:32:00,
2013-08-10 19:43:00,72.0,53.0,-100.00,WNW,293,3.0,10.0,52,0.00,,,0.00,510.000000,,2013-08-10 23:43:00,
2013-08-10 19:53:00,72.0,53.0,-100.00,WNW,293,3.0,10.0,52,0.00,,,0.00,510.000000,,2013-08-10 23:53:00,
2013-08-10 20:22:00,69.0,52.0,-100.00,NW,306,2.0,8.0,54,0.00,,,0.00,322.000000,,2013-08-11 00:22:00,
2013-08-10 20:32:00,69.0,52.0,-100.00,NW,306,2.0,8.0,54,0.00,,,0.00,322.000000,,2013-08-11 00:32:00,
2013-08-10 20:42:00,69.0,52.0,-100.00,NW,306,2.0,8.0,54,0.00,,,0.00,322.000000,,2013-08-11 00:42:00,
2013-08-10 20:52:00,69.0,52.0,-100.00,NW,306,2.0,8.0,54,0.00,,,0.00,322.000000,,2013-08-11 00:52:00,
2013-08-10 21:56:00,51.0,50.0,-100.00,NNE,16,0.0,0.0,97,0.00,,,0.00,4.000000,,2013-08-11 01:56:00,
2013-08-10 22:32:00,51.0,50.0,-100.00,NNE,16,0.0,0.0,97,0.00,,,0.00,4.000000,,2013-08-11 02:32:00,
2013-08-10 22:43:00,51.0,50.0,-100.00,NNE,16,0.0,0.0,97,0.00,,,0.00,4.000000,,2013-08-11 02:43:00,
2013-08-10 23:35:00,48.0,48.0,-100.00,NNE,16,0.0,0.0,99,0.00,,,0.00,0.000000,,2013-08-11 03:35:00,
2013-08-10 23:44:00,48.0,48.0,-100.00,NNE,16,0.0,0.0,99,0.00,,,0.00,0.000000,,2013-08-11 03:44:00,
2013-08-10 23:54:00,48.0,48.0,-100.00,NNE,16,0.0,0.0,99,0.00,,,0.00,0.000000,,2013-08-11 03:54:00,